sensor_id;sensor_type;location;lat;lon;timestamp;pressure;altitude;pressure_sealevel;temperature;humidity
61436;BME280;47304;47.456;19.160;2023-02-21T00:01:22;100199.83;;;7.05;67.30
61436;BME280;47304;47.456;19.160;2023-02-21T00:03:49;100198.56;;;7.01;67.32
61436;BME280;47304;47.456;19.160;2023-02-21T00:06:15;100198.16;;;6.96;67.41
61436;BME280;47304;47.456;19.160;2023-02-21T00:08:42;100193.41;;;6.91;67.21
61436;BME280;47304;47.456;19.160;2023-02-21T00:11:09;100196.83;;;6.86;67.16
61436;BME280;47304;47.456;19.160;2023-02-21T00:13:36;100195.35;;;6.79;67.20
61436;BME280;47304;47.456;19.160;2023-02-21T00:16:03;100193.16;;;6.71;67.24
61436;BME280;47304;47.456;19.160;2023-02-21T00:18:36;100189.08;;;6.64;67.30
61436;BME280;47304;47.456;19.160;2023-02-21T00:21:04;100183.09;;;6.60;67.53
61436;BME280;47304;47.456;19.160;2023-02-21T00:23:35;100178.70;;;6.56;67.61
61436;BME280;47304;47.456;19.160;2023-02-21T00:26:01;100183.84;;;6.50;67.75
61436;BME280;47304;47.456;19.160;2023-02-21T00:28:31;100185.33;;;6.44;67.61
61436;BME280;47304;47.456;19.160;2023-02-21T00:30:57;100184.95;;;6.43;67.75
61436;BME280;47304;47.456;19.160;2023-02-21T00:33:24;100187.22;;;6.43;67.86
61436;BME280;47304;47.456;19.160;2023-02-21T00:35:51;100188.60;;;6.41;67.86
61436;BME280;47304;47.456;19.160;2023-02-21T00:38:17;100191.14;;;6.36;67.82
61436;BME280;47304;47.456;19.160;2023-02-21T00:40:44;100192.66;;;6.32;68.22
61436;BME280;47304;47.456;19.160;2023-02-21T00:43:10;100190.71;;;6.31;68.32
61436;BME280;47304;47.456;19.160;2023-02-21T00:45:37;100190.20;;;6.31;68.51
61436;BME280;47304;47.456;19.160;2023-02-21T00:48:03;100189.67;;;6.31;68.53
61436;BME280;47304;47.456;19.160;2023-02-21T00:50:30;100194.85;;;6.28;68.32
61436;BME280;47304;47.456;19.160;2023-02-21T00:52:56;100191.70;;;6.27;68.65
61436;BME280;47304;47.456;19.160;2023-02-21T00:55:23;100188.23;;;6.26;68.97
61436;BME280;47304;47.456;19.160;2023-02-21T00:57:49;100185.62;;;6.27;68.91
61436;BME280;47304;47.456;19.160;2023-02-21T01:00:19;100184.24;;;6.28;68.92
61436;BME280;47304;47.456;19.160;2023-02-21T01:02:45;100176.60;;;6.29;68.99
61436;BME280;47304;47.456;19.160;2023-02-21T01:05:12;100170.52;;;6.29;68.88
61436;BME280;47304;47.456;19.160;2023-02-21T01:07:38;100170.17;;;6.30;69.00
61436;BME280;47304;47.456;19.160;2023-02-21T01:10:05;100167.92;;;6.30;68.92
61436;BME280;47304;47.456;19.160;2023-02-21T01:12:32;100170.54;;;6.30;68.88
61436;BME280;47304;47.456;19.160;2023-02-21T01:14:58;100169.15;;;6.31;68.98
61436;BME280;47304;47.456;19.160;2023-02-21T01:17:25;100168.99;;;6.32;68.95
61436;BME280;47304;47.456;19.160;2023-02-21T01:19:51;100167.77;;;6.31;68.93
61436;BME280;47304;47.456;19.160;2023-02-21T01:22:18;100166.55;;;6.31;68.88
61436;BME280;47304;47.456;19.160;2023-02-21T01:24:48;100172.11;;;6.31;68.79
61436;BME280;47304;47.456;19.160;2023-02-21T01:27:14;100173.68;;;6.31;68.76
61436;BME280;47304;47.456;19.160;2023-02-21T01:29:41;100168.81;;;6.32;68.69
61436;BME280;47304;47.456;19.160;2023-02-21T01:32:07;100170.90;;;6.33;68.60
61436;BME280;47304;47.456;19.160;2023-02-21T01:34:34;100168.15;;;6.35;68.48
61436;BME280;47304;47.456;19.160;2023-02-21T01:37:01;100173.23;;;6.37;68.33
61436;BME280;47304;47.456;19.160;2023-02-21T01:39:28;100169.06;;;6.38;68.11
61436;BME280;47304;47.456;19.160;2023-02-21T01:41:54;100169.25;;;6.39;68.07
61436;BME280;47304;47.456;19.160;2023-02-21T01:44:42;100171.89;;;6.41;67.99
61436;BME280;47304;47.456;19.160;2023-02-21T01:47:10;100171.05;;;6.43;67.77
61436;BME280;47304;47.456;19.160;2023-02-21T01:49:39;100161.14;;;6.44;67.61
61436;BME280;47304;47.456;19.160;2023-02-21T01:52:06;100150.88;;;6.44;67.62
61436;BME280;47304;47.456;19.160;2023-02-21T01:54:37;100143.06;;;6.45;67.48
61436;BME280;47304;47.456;19.160;2023-02-21T01:57:06;100143.58;;;6.46;67.29
61436;BME280;47304;47.456;19.160;2023-02-21T01:59:33;100136.30;;;6.46;67.20
61436;BME280;47304;47.456;19.160;2023-02-21T02:02:26;100143.27;;;6.46;67.20
61436;BME280;47304;47.456;19.160;2023-02-21T02:04:54;100144.12;;;6.47;67.06
61436;BME280;47304;47.456;19.160;2023-02-21T02:07:21;100143.78;;;6.47;67.04
61436;BME280;47304;47.456;19.160;2023-02-21T02:09:48;100141.17;;;6.46;66.98
61436;BME280;47304;47.456;19.160;2023-02-21T02:15:12;100136.09;;;6.45;66.94
61436;BME280;47304;47.456;19.160;2023-02-21T02:42:47;100107.33;;;5.90;66.80
61436;BME280;47304;47.456;19.160;2023-02-21T02:45:25;100107.66;;;6.00;66.31
61436;BME280;47304;47.456;19.160;2023-02-21T02:48:00;100101.13;;;6.18;65.58
61436;BME280;47304;47.456;19.160;2023-02-21T02:50:28;100095.20;;;6.45;64.80
61436;BME280;47304;47.456;19.160;2023-02-21T02:53:00;100096.73;;;6.73;64.06
61436;BME280;47304;47.456;19.160;2023-02-21T02:55:35;100090.54;;;6.98;63.24
61436;BME280;47304;47.456;19.160;2023-02-21T02:58:04;100092.34;;;7.23;62.31
61436;BME280;47304;47.456;19.160;2023-02-21T03:00:33;100087.49;;;7.48;61.23
61436;BME280;47304;47.456;19.160;2023-02-21T03:06:25;100085.30;;;7.84;60.50
61436;BME280;47304;47.456;19.160;2023-02-21T03:09:08;100089.23;;;7.97;59.54
61436;BME280;47304;47.456;19.160;2023-02-21T03:11:48;100087.88;;;8.09;59.40
61436;BME280;47304;47.456;19.160;2023-02-21T03:14:18;100091.58;;;8.15;59.09
61436;BME280;47304;47.456;19.160;2023-02-21T03:16:50;100095.10;;;8.21;58.94
61436;BME280;47304;47.456;19.160;2023-02-21T03:19:29;100094.41;;;8.24;58.67
61436;BME280;47304;47.456;19.160;2023-02-21T03:21:59;100087.45;;;8.29;58.43
61436;BME280;47304;47.456;19.160;2023-02-21T03:24:28;100087.83;;;8.32;58.43
61436;BME280;47304;47.456;19.160;2023-02-21T03:26:58;100091.33;;;8.36;57.88
61436;BME280;47304;47.456;19.160;2023-02-21T03:29:27;100093.80;;;8.45;57.68
61436;BME280;47304;47.456;19.160;2023-02-21T03:31:58;100095.27;;;8.52;57.84
61436;BME280;47304;47.456;19.160;2023-02-21T03:34:26;100095.96;;;8.55;57.72
61436;BME280;47304;47.456;19.160;2023-02-21T03:36:53;100096.52;;;8.58;57.65
61436;BME280;47304;47.456;19.160;2023-02-21T03:39:19;100101.57;;;8.60;57.55
61436;BME280;47304;47.456;19.160;2023-02-21T03:41:46;100100.70;;;8.62;57.51
61436;BME280;47304;47.456;19.160;2023-02-21T03:44:12;100104.04;;;8.64;57.35
61436;BME280;47304;47.456;19.160;2023-02-21T03:46:39;100098.97;;;8.65;57.16
61436;BME280;47304;47.456;19.160;2023-02-21T03:49:06;100099.86;;;8.69;56.92
61436;BME280;47304;47.456;19.160;2023-02-21T03:51:32;100097.09;;;8.74;56.79
61436;BME280;47304;47.456;19.160;2023-02-21T03:53:59;100102.33;;;8.77;56.81
61436;BME280;47304;47.456;19.160;2023-02-21T03:56:26;100110.02;;;8.78;56.81
61436;BME280;47304;47.456;19.160;2023-02-21T03:59:06;100110.36;;;8.79;56.67
61436;BME280;47304;47.456;19.160;2023-02-21T04:01:33;100106.70;;;8.79;56.77
61436;BME280;47304;47.456;19.160;2023-02-21T04:03:59;100101.63;;;8.77;56.94
61436;BME280;47304;47.456;19.160;2023-02-21T04:06:26;100100.55;;;8.72;57.13
61436;BME280;47304;47.456;19.160;2023-02-21T04:08:52;100101.42;;;8.67;57.08
61436;BME280;47304;47.456;19.160;2023-02-21T04:11:20;100094.60;;;8.65;56.87
61436;BME280;47304;47.456;19.160;2023-02-21T04:13:47;100097.23;;;8.63;56.91
61436;BME280;47304;47.456;19.160;2023-02-21T04:16:13;100096.88;;;8.62;56.99
61436;BME280;47304;47.456;19.160;2023-02-21T04:18:40;100098.09;;;8.60;56.94
61436;BME280;47304;47.456;19.160;2023-02-21T04:21:06;100098.60;;;8.59;56.80
61436;BME280;47304;47.456;19.160;2023-02-21T04:23:33;100101.05;;;8.56;56.84
61436;BME280;47304;47.456;19.160;2023-02-21T04:25:59;100103.99;;;8.53;56.84
61436;BME280;47304;47.456;19.160;2023-02-21T04:28:26;100099.79;;;8.49;56.91
61436;BME280;47304;47.456;19.160;2023-02-21T04:30:52;100099.77;;;8.48;56.92
61436;BME280;47304;47.456;19.160;2023-02-21T04:33:19;100093.98;;;8.45;57.05
61436;BME280;47304;47.456;19.160;2023-02-21T04:35:45;100095.20;;;8.44;57.12
61436;BME280;47304;47.456;19.160;2023-02-21T04:38:12;100094.34;;;8.43;57.04
61436;BME280;47304;47.456;19.160;2023-02-21T04:40:38;100094.70;;;8.47;56.96
61436;BME280;47304;47.456;19.160;2023-02-21T04:43:05;100095.27;;;8.49;56.89
61436;BME280;47304;47.456;19.160;2023-02-21T04:45:32;100096.30;;;8.50;56.89
61436;BME280;47304;47.456;19.160;2023-02-21T04:47:58;100096.30;;;8.51;56.98
61436;BME280;47304;47.456;19.160;2023-02-21T04:50:25;100094.90;;;8.51;56.93
61436;BME280;47304;47.456;19.160;2023-02-21T04:52:51;100098.39;;;8.51;56.95
61436;BME280;47304;47.456;19.160;2023-02-21T04:55:18;100095.26;;;8.51;57.00
61436;BME280;47304;47.456;19.160;2023-02-21T04:57:44;100095.95;;;8.50;57.03
61436;BME280;47304;47.456;19.160;2023-02-21T05:00:11;100095.08;;;8.51;57.08
61436;BME280;47304;47.456;19.160;2023-02-21T05:02:42;100099.28;;;8.51;57.02
61436;BME280;47304;47.456;19.160;2023-02-21T05:05:09;100101.89;;;8.53;57.04
61436;BME280;47304;47.456;19.160;2023-02-21T05:07:35;100100.16;;;8.55;57.03
61436;BME280;47304;47.456;19.160;2023-02-21T05:10:03;100104.02;;;8.58;57.00
61436;BME280;47304;47.456;19.160;2023-02-21T05:12:30;100106.83;;;8.60;56.95
61436;BME280;47304;47.456;19.160;2023-02-21T05:14:57;100109.61;;;8.60;56.98
61436;BME280;47304;47.456;19.160;2023-02-21T05:17:24;100108.73;;;8.60;56.91
61436;BME280;47304;47.456;19.160;2023-02-21T05:19:50;100110.31;;;8.60;56.96
61436;BME280;47304;47.456;19.160;2023-02-21T05:22:17;100106.83;;;8.60;56.97
61436;BME280;47304;47.456;19.160;2023-02-21T05:24:43;100109.79;;;8.60;56.93
61436;BME280;47304;47.456;19.160;2023-02-21T05:27:10;100103.33;;;8.61;56.93
61436;BME280;47304;47.456;19.160;2023-02-21T05:29:36;100105.59;;;8.61;57.08
61436;BME280;47304;47.456;19.160;2023-02-21T05:32:03;100098.27;;;8.62;57.12
61436;BME280;47304;47.456;19.160;2023-02-21T05:34:30;100099.49;;;8.63;57.01
61436;BME280;47304;47.456;19.160;2023-02-21T05:36:56;100092.16;;;8.65;57.05
61436;BME280;47304;47.456;19.160;2023-02-21T05:39:23;100092.86;;;8.65;56.98
61436;BME280;47304;47.456;19.160;2023-02-21T05:41:50;100090.60;;;8.64;57.00
61436;BME280;47304;47.456;19.160;2023-02-21T05:44:17;100089.73;;;8.66;56.97
61436;BME280;47304;47.456;19.160;2023-02-21T05:46:44;100083.96;;;8.67;56.90
61436;BME280;47304;47.456;19.160;2023-02-21T05:49:10;100081.17;;;8.68;57.03
61436;BME280;47304;47.456;19.160;2023-02-21T05:51:40;100083.96;;;8.67;56.92
61436;BME280;47304;47.456;19.160;2023-02-21T05:54:12;100084.65;;;8.66;56.92
61436;BME280;47304;47.456;19.160;2023-02-21T05:56:39;100083.61;;;8.66;56.91
61436;BME280;47304;47.456;19.160;2023-02-21T05:59:07;100087.46;;;8.68;56.96
61436;BME280;47304;47.456;19.160;2023-02-21T06:01:34;100090.95;;;8.70;57.12
61436;BME280;47304;47.456;19.160;2023-02-21T06:04:01;100092.88;;;8.72;57.04
61436;BME280;47304;47.456;19.160;2023-02-21T06:06:27;100091.67;;;8.77;57.06
61436;BME280;47304;47.456;19.160;2023-02-21T06:08:54;100094.14;;;8.83;56.84
61436;BME280;47304;47.456;19.160;2023-02-21T06:11:23;100096.06;;;8.89;56.85
61436;BME280;47304;47.456;19.160;2023-02-21T06:13:51;100096.61;;;8.95;56.70
61436;BME280;47304;47.456;19.160;2023-02-21T06:16:18;100100.10;;;9.02;56.45
61436;BME280;47304;47.456;19.160;2023-02-21T06:18:44;100098.90;;;9.12;56.29
61436;BME280;47304;47.456;19.160;2023-02-21T06:21:11;100105.89;;;9.20;56.29
61436;BME280;47304;47.456;19.160;2023-02-21T06:23:38;100097.34;;;9.25;55.96
61436;BME280;47304;47.456;19.160;2023-02-21T06:26:04;100099.27;;;9.32;55.95
61436;BME280;47304;47.456;19.160;2023-02-21T06:28:31;100099.25;;;9.40;55.65
61436;BME280;47304;47.456;19.160;2023-02-21T06:30:57;100099.43;;;9.47;55.61
61436;BME280;47304;47.456;19.160;2023-02-21T06:33:24;100104.33;;;9.54;55.56
61436;BME280;47304;47.456;19.160;2023-02-21T06:35:51;100104.86;;;9.59;55.21
61436;BME280;47304;47.456;19.160;2023-02-21T06:38:17;100108.52;;;9.67;55.16
61436;BME280;47304;47.456;19.160;2023-02-21T06:40:44;100110.08;;;9.73;54.72
61436;BME280;47304;47.456;19.160;2023-02-21T06:43:10;100122.30;;;9.82;54.29
61436;BME280;47304;47.456;19.160;2023-02-21T06:45:37;100126.69;;;9.89;54.36
61436;BME280;47304;47.456;19.160;2023-02-21T06:48:03;100123.52;;;9.96;54.23
61436;BME280;47304;47.456;19.160;2023-02-21T06:50:30;100122.46;;;10.02;53.85
61436;BME280;47304;47.456;19.160;2023-02-21T06:52:56;100123.68;;;10.09;53.70
61436;BME280;47304;47.456;19.160;2023-02-21T06:55:23;100123.83;;;10.16;53.54
61436;BME280;47304;47.456;19.160;2023-02-21T06:57:51;100125.04;;;10.22;53.36
61436;BME280;47304;47.456;19.160;2023-02-21T07:00:18;100119.95;;;10.28;53.64
61436;BME280;47304;47.456;19.160;2023-02-21T07:02:44;100122.02;;;10.35;53.61
61436;BME280;47304;47.456;19.160;2023-02-21T07:05:11;100118.88;;;10.41;53.50
61436;BME280;47304;47.456;19.160;2023-02-21T07:07:37;100122.35;;;10.48;53.65
61436;BME280;47304;47.456;19.160;2023-02-21T07:10:04;100121.45;;;10.54;53.48
61436;BME280;47304;47.456;19.160;2023-02-21T07:12:31;100122.12;;;10.61;53.47
61436;BME280;47304;47.456;19.160;2023-02-21T07:14:57;100118.59;;;10.68;53.43
61436;BME280;47304;47.456;19.160;2023-02-21T07:17:24;100116.45;;;10.73;53.19
61436;BME280;47304;47.456;19.160;2023-02-21T07:19:50;100124.50;;;10.79;53.21
61436;BME280;47304;47.456;19.160;2023-02-21T07:22:17;100127.43;;;10.86;53.00
61436;BME280;47304;47.456;19.160;2023-02-21T07:24:43;100130.20;;;10.92;53.00
61436;BME280;47304;47.456;19.160;2023-02-21T07:27:10;100135.08;;;10.98;53.18
61436;BME280;47304;47.456;19.160;2023-02-21T07:29:36;100136.09;;;11.05;52.69
61436;BME280;47304;47.456;19.160;2023-02-21T07:32:03;100139.91;;;11.11;52.23
61436;BME280;47304;47.456;19.160;2023-02-21T07:34:29;100142.85;;;11.16;52.06
61436;BME280;47304;47.456;19.160;2023-02-21T07:36:56;100140.72;;;11.21;51.39
61436;BME280;47304;47.456;19.160;2023-02-21T07:39:22;100142.80;;;11.27;51.30
61436;BME280;47304;47.456;19.160;2023-02-21T07:41:49;100144.15;;;11.34;50.98
61436;BME280;47304;47.456;19.160;2023-02-21T07:44:15;100139.17;;;11.41;51.13
61436;BME280;47304;47.456;19.160;2023-02-21T07:46:42;100139.14;;;11.47;51.42
61436;BME280;47304;47.456;19.160;2023-02-21T07:49:08;100143.82;;;11.54;51.02
61436;BME280;47304;47.456;19.160;2023-02-21T07:51:35;100138.15;;;11.60;50.93
61436;BME280;47304;47.456;19.160;2023-02-21T07:54:02;100137.04;;;11.68;50.48
61436;BME280;47304;47.456;19.160;2023-02-21T07:56:28;100136.45;;;11.74;49.95
61436;BME280;47304;47.456;19.160;2023-02-21T07:58:55;100130.42;;;11.81;49.83
61436;BME280;47304;47.456;19.160;2023-02-21T08:01:23;100135.11;;;11.86;50.05
61436;BME280;47304;47.456;19.160;2023-02-21T08:03:50;100130.84;;;11.93;49.92
61436;BME280;47304;47.456;19.160;2023-02-21T08:06:17;100127.63;;;12.01;49.71
61436;BME280;47304;47.456;19.160;2023-02-21T08:08:44;100127.03;;;12.09;49.45
61436;BME280;47304;47.456;19.160;2023-02-21T08:11:10;100128.51;;;12.17;49.58
61436;BME280;47304;47.456;19.160;2023-02-21T08:13:37;100127.00;;;12.27;49.27
61436;BME280;47304;47.456;19.160;2023-02-21T08:16:04;100130.45;;;12.33;49.05
61436;BME280;47304;47.456;19.160;2023-02-21T08:18:30;100128.44;;;12.40;48.92
61436;BME280;47304;47.456;19.160;2023-02-21T08:20:57;100125.20;;;12.45;48.35
61436;BME280;47304;47.456;19.160;2023-02-21T08:23:24;100120.04;;;12.51;48.32
61436;BME280;47304;47.456;19.160;2023-02-21T08:25:50;100119.27;;;12.56;48.21
61436;BME280;47304;47.456;19.160;2023-02-21T08:28:17;100115.34;;;12.62;48.00
61436;BME280;47304;47.456;19.160;2023-02-21T08:30:43;100119.14;;;12.67;48.02
61436;BME280;47304;47.456;19.160;2023-02-21T08:33:10;100122.39;;;12.74;47.99
61436;BME280;47304;47.456;19.160;2023-02-21T08:35:36;100120.71;;;12.81;47.84
61436;BME280;47304;47.456;19.160;2023-02-21T08:38:03;100118.56;;;12.84;47.47
61436;BME280;47304;47.456;19.160;2023-02-21T08:40:30;100117.34;;;12.84;47.26
61436;BME280;47304;47.456;19.160;2023-02-21T08:42:58;100116.97;;;12.85;47.47
61436;BME280;47304;47.456;19.160;2023-02-21T08:45:27;100121.62;;;12.91;47.64
61436;BME280;47304;47.456;19.160;2023-02-21T08:47:54;100125.50;;;13.03;47.30
61436;BME280;47304;47.456;19.160;2023-02-21T08:50:22;100119.39;;;13.24;46.74
61436;BME280;47304;47.456;19.160;2023-02-21T08:52:50;100119.70;;;13.61;45.96
61436;BME280;47304;47.456;19.160;2023-02-21T08:55:18;100115.38;;;13.97;45.82
61436;BME280;47304;47.456;19.160;2023-02-21T08:57:49;100118.00;;;14.26;45.10
61436;BME280;47304;47.456;19.160;2023-02-21T09:00:17;100114.82;;;15.32;43.12
61436;BME280;47304;47.456;19.160;2023-02-21T09:02:45;100103.77;;;17.78;40.10
61436;BME280;47304;47.456;19.160;2023-02-21T09:05:15;100102.36;;;20.32;36.07
61436;BME280;47304;47.456;19.160;2023-02-21T09:07:42;100098.02;;;22.65;32.69
61436;BME280;47304;47.456;19.160;2023-02-21T09:10:10;100096.00;;;24.73;29.53
61436;BME280;47304;47.456;19.160;2023-02-21T09:12:37;100100.40;;;26.62;25.97
61436;BME280;47304;47.456;19.160;2023-02-21T09:15:05;100106.64;;;28.04;24.29
61436;BME280;47304;47.456;19.160;2023-02-21T09:17:32;100109.67;;;29.23;22.59
61436;BME280;47304;47.456;19.160;2023-02-21T09:20:03;100104.80;;;30.02;20.93
61436;BME280;47304;47.456;19.160;2023-02-21T09:22:31;100104.03;;;30.55;20.36
61436;BME280;47304;47.456;19.160;2023-02-21T09:24:58;100102.48;;;30.93;19.84
61436;BME280;47304;47.456;19.160;2023-02-21T09:27:25;100103.31;;;31.75;19.76
61436;BME280;47304;47.456;19.160;2023-02-21T09:29:52;100093.85;;;32.86;18.72
61436;BME280;47304;47.456;19.160;2023-02-21T09:32:18;100098.29;;;33.93;18.23
61436;BME280;47304;47.456;19.160;2023-02-21T09:34:44;100099.16;;;34.76;16.75
61436;BME280;47304;47.456;19.160;2023-02-21T09:37:11;100095.63;;;35.31;16.33
61436;BME280;47304;47.456;19.160;2023-02-21T09:39:37;100103.25;;;36.03;15.72
61436;BME280;47304;47.456;19.160;2023-02-21T09:42:04;100101.46;;;36.33;14.67
61436;BME280;47304;47.456;19.160;2023-02-21T09:44:31;100104.79;;;36.13;15.00
61436;BME280;47304;47.456;19.160;2023-02-21T09:47:01;100100.88;;;36.67;15.14
61436;BME280;47304;47.456;19.160;2023-02-21T09:49:35;100099.73;;;37.06;14.02
61436;BME280;47304;47.456;19.160;2023-02-21T09:52:04;100102.51;;;37.04;14.13
61436;BME280;47304;47.456;19.160;2023-02-21T09:54:42;100101.66;;;37.02;13.58
61436;BME280;47304;47.456;19.160;2023-02-21T09:57:13;100104.96;;;37.27;14.06
61436;BME280;47304;47.456;19.160;2023-02-21T09:59:40;100103.47;;;37.79;14.08
61436;BME280;47304;47.456;19.160;2023-02-21T10:04:56;100102.20;;;38.64;13.41
61436;BME280;47304;47.456;19.160;2023-02-21T10:10:36;100105.53;;;39.23;12.82
61436;BME280;47304;47.456;19.160;2023-02-21T10:13:14;100114.41;;;39.48;12.67
61436;BME280;47304;47.456;19.160;2023-02-21T10:19:11;100114.53;;;40.04;12.25
61436;BME280;47304;47.456;19.160;2023-02-21T10:21:30;100113.41;;;40.00;12.06
61436;BME280;47304;47.456;19.160;2023-02-21T10:24:04;100109.50;;;40.29;11.84
61436;BME280;47304;47.456;19.160;2023-02-21T10:26:37;100110.88;;;40.20;11.85
61436;BME280;47304;47.456;19.160;2023-02-21T10:29:14;100104.87;;;40.15;11.58
61436;BME280;47304;47.456;19.160;2023-02-21T10:31:43;100107.02;;;40.38;11.75
61436;BME280;47304;47.456;19.160;2023-02-21T10:34:29;100099.36;;;41.21;11.41
61436;BME280;47304;47.456;19.160;2023-02-21T10:39:50;100094.64;;;43.05;10.13
61436;BME280;47304;47.456;19.160;2023-02-21T10:42:36;100086.55;;;43.46;10.08
61436;BME280;47304;47.456;19.160;2023-02-21T10:45:06;100086.30;;;44.34;9.85
61436;BME280;47304;47.456;19.160;2023-02-21T10:47:48;100087.10;;;44.82;9.20
61436;BME280;47304;47.456;19.160;2023-02-21T10:50:43;100092.69;;;44.74;9.24
61436;BME280;47304;47.456;19.160;2023-02-21T10:58:45;100084.09;;;43.99;9.21
61436;BME280;47304;47.456;19.160;2023-02-21T11:01:16;100074.32;;;41.92;10.31
61436;BME280;47304;47.456;19.160;2023-02-21T11:03:54;100077.58;;;40.15;11.30
61436;BME280;47304;47.456;19.160;2023-02-21T11:06:36;100080.39;;;40.03;11.69
61436;BME280;47304;47.456;19.160;2023-02-21T11:12:26;100081.21;;;41.03;11.32
61436;BME280;47304;47.456;19.160;2023-02-21T11:17:22;100088.67;;;37.38;13.25
61436;BME280;47304;47.456;19.160;2023-02-21T11:22:21;100078.95;;;32.68;16.58
61436;BME280;47304;47.456;19.160;2023-02-21T11:24:52;100082.77;;;30.86;18.30
61436;BME280;47304;47.456;19.160;2023-02-21T11:27:21;100079.81;;;29.50;19.85
61436;BME280;47304;47.456;19.160;2023-02-21T11:29:49;100077.17;;;28.68;20.58
61436;BME280;47304;47.456;19.160;2023-02-21T11:32:29;100079.65;;;29.39;20.53
61436;BME280;47304;47.456;19.160;2023-02-21T11:35:08;100072.71;;;31.43;18.89
61436;BME280;47304;47.456;19.160;2023-02-21T11:37:58;100073.34;;;33.49;16.82
61436;BME280;47304;47.456;19.160;2023-02-21T11:43:29;100070.60;;;36.53;14.56
61436;BME280;47304;47.456;19.160;2023-02-21T11:46:16;100072.22;;;37.50;13.80
61436;BME280;47304;47.456;19.160;2023-02-21T11:51:38;100075.52;;;38.20;13.02
61436;BME280;47304;47.456;19.160;2023-02-21T11:54:06;100080.51;;;38.57;12.97
61436;BME280;47304;47.456;19.160;2023-02-21T11:56:41;100082.42;;;38.52;12.83
61436;BME280;47304;47.456;19.160;2023-02-21T11:59:27;100081.98;;;38.35;13.01
61436;BME280;47304;47.456;19.160;2023-02-21T12:10:13;100085.66;;;32.20;17.25
61436;BME280;47304;47.456;19.160;2023-02-21T12:15:26;100086.77;;;28.43;20.95
61436;BME280;47304;47.456;19.160;2023-02-21T12:32:58;100090.73;;;20.98;31.43
61436;BME280;47304;47.456;19.160;2023-02-21T12:41:32;100093.70;;;19.37;34.79
61436;BME280;47304;47.456;19.160;2023-02-21T12:46:57;100098.86;;;18.64;36.37
61436;BME280;47304;47.456;19.160;2023-02-21T12:49:33;100091.44;;;18.49;37.00
61436;BME280;47304;47.456;19.160;2023-02-21T12:52:37;100084.56;;;18.39;37.17
61436;BME280;47304;47.456;19.160;2023-02-21T12:55:04;100086.27;;;18.31;37.68
61436;BME280;47304;47.456;19.160;2023-02-21T12:57:50;100085.51;;;18.13;37.84
61436;BME280;47304;47.456;19.160;2023-02-21T13:00:23;100084.30;;;17.97;38.50
61436;BME280;47304;47.456;19.160;2023-02-21T13:05:32;100083.47;;;17.48;39.13
61436;BME280;47304;47.456;19.160;2023-02-21T13:13:29;100077.80;;;17.05;40.19
61436;BME280;47304;47.456;19.160;2023-02-21T13:15:57;100075.29;;;17.00;40.35
61436;BME280;47304;47.456;19.160;2023-02-21T13:18:33;100072.50;;;16.99;40.46
61436;BME280;47304;47.456;19.160;2023-02-21T13:24:24;100066.42;;;17.07;40.60
61436;BME280;47304;47.456;19.160;2023-02-21T13:29:39;100067.42;;;16.91;41.02
61436;BME280;47304;47.456;19.160;2023-02-21T13:32:10;100069.44;;;16.82;41.11
61436;BME280;47304;47.456;19.160;2023-02-21T13:34:43;100066.12;;;16.63;41.52
61436;BME280;47304;47.456;19.160;2023-02-21T13:37:22;100070.16;;;16.46;41.93
61436;BME280;47304;47.456;19.160;2023-02-21T13:39:53;100067.16;;;16.34;41.96
61436;BME280;47304;47.456;19.160;2023-02-21T13:42:23;100070.62;;;16.24;42.24
61436;BME280;47304;47.456;19.160;2023-02-21T13:45:03;100079.68;;;16.10;42.53
61436;BME280;47304;47.456;19.160;2023-02-21T13:55:35;100056.68;;;16.30;42.67
61436;BME280;47304;47.456;19.160;2023-02-21T14:02:58;100060.33;;;16.32;42.59
61436;BME280;47304;47.456;19.160;2023-02-21T14:10:57;100067.02;;;15.74;43.56
61436;BME280;47304;47.456;19.160;2023-02-21T14:18:46;100068.99;;;15.16;44.69
61436;BME280;47304;47.456;19.160;2023-02-21T14:23:59;100069.89;;;14.86;45.46
61436;BME280;47304;47.456;19.160;2023-02-21T14:34:37;100067.73;;;14.29;46.87
61436;BME280;47304;47.456;19.160;2023-02-21T14:45:43;100071.89;;;13.87;48.14
61436;BME280;47304;47.456;19.160;2023-02-21T14:54:49;100083.41;;;13.63;48.85
61436;BME280;47304;47.456;19.160;2023-02-21T14:57:42;100096.68;;;13.59;49.04
61436;BME280;47304;47.456;19.160;2023-02-21T15:00:27;100089.90;;;13.55;49.16
61436;BME280;47304;47.456;19.160;2023-02-21T15:03:16;100093.88;;;13.49;49.29
61436;BME280;47304;47.456;19.160;2023-02-21T15:05:54;100096.95;;;13.43;49.44
61436;BME280;47304;47.456;19.160;2023-02-21T15:08:24;100090.15;;;13.40;49.37
61436;BME280;47304;47.456;19.160;2023-02-21T15:10:54;100085.42;;;13.37;49.78
61436;BME280;47304;47.456;19.160;2023-02-21T15:13:27;100091.79;;;13.35;49.67
61436;BME280;47304;47.456;19.160;2023-02-21T15:16:06;100092.85;;;13.34;49.51
61436;BME280;47304;47.456;19.160;2023-02-21T15:18:36;100090.02;;;13.35;49.78
61436;BME280;47304;47.456;19.160;2023-02-21T15:23:41;100091.09;;;13.46;49.61
61436;BME280;47304;47.456;19.160;2023-02-21T15:26:26;100085.50;;;13.75;49.10
61436;BME280;47304;47.456;19.160;2023-02-21T15:29:16;100086.46;;;13.70;48.88
61436;BME280;47304;47.456;19.160;2023-02-21T15:31:44;100084.04;;;13.58;49.28
61436;BME280;47304;47.456;19.160;2023-02-21T15:34:16;100079.85;;;13.45;49.53
61436;BME280;47304;47.456;19.160;2023-02-21T15:36:45;100084.02;;;13.37;49.77
61436;BME280;47304;47.456;19.160;2023-02-21T15:39:37;100078.83;;;13.30;49.66
61436;BME280;47304;47.456;19.160;2023-02-21T15:42:08;100079.63;;;13.25;49.80